createdAt,value
2023-02-23T00:04:40.615Z,39.9
2023-02-23T00:09:40.788Z,39.9
2023-02-23T00:14:41.047Z,39.9
2023-02-23T00:19:44.196Z,39.7
2023-02-23T00:24:43.907Z,39.8
2023-02-23T00:29:43.818Z,39.7
2023-02-23T00:34:43.975Z,39.6
2023-02-23T00:39:44.279Z,39.2
2023-02-23T00:44:44.447Z,39.5
2023-02-23T00:49:44.795Z,39.5
2023-02-23T00:54:45.218Z,39.6
2023-02-23T00:59:45.396Z,39.5
2023-02-23T01:04:45.628Z,39.5
2023-02-23T01:09:45.640Z,39.5
2023-02-23T01:14:48.755Z,39.5
2023-02-23T01:19:51.289Z,39.4
2023-02-23T01:24:51.153Z,39.4
2023-02-23T01:29:51.364Z,39.5
2023-02-23T01:34:51.688Z,39.4
2023-02-23T01:39:51.820Z,39.4
2023-02-23T01:44:52.134Z,39.5
2023-02-23T01:49:55.064Z,39.5
2023-02-23T01:54:54.683Z,39.6
2023-02-23T01:59:54.731Z,39.6
2023-02-23T02:04:54.894Z,39.6
2023-02-23T02:09:55.124Z,39.6
2023-02-23T02:14:55.391Z,39.5
2023-02-23T02:19:55.679Z,39.5
2023-02-23T02:24:55.936Z,39.6
2023-02-23T02:29:56.061Z,39.6
2023-02-23T02:34:56.425Z,39.5
2023-02-23T02:39:56.810Z,39.6
2023-02-23T02:44:57.017Z,39.5
2023-02-23T02:49:57.444Z,39.5
2023-02-23T02:54:57.657Z,39.4
2023-02-23T02:59:58.792Z,39.5
2023-02-23T03:04:58.826Z,39.5
2023-02-23T03:10:00.996Z,39.5
2023-02-23T03:15:00.866Z,39.4
2023-02-23T03:20:00.988Z,39.4
2023-02-23T03:25:01.314Z,39.5
2023-02-23T03:30:01.606Z,39
2023-02-23T03:35:01.967Z,39.1
2023-02-23T03:40:04.037Z,39.3
2023-02-23T03:45:03.900Z,39.2
2023-02-23T03:50:04.016Z,39.2
2023-02-23T03:55:04.206Z,39.3
2023-02-23T04:00:04.433Z,39.3
2023-02-23T04:05:04.658Z,39.3
2023-02-23T04:10:04.794Z,39.3
2023-02-23T04:15:05.113Z,39.3
2023-02-23T04:20:05.348Z,39.4
2023-02-23T04:25:05.780Z,39.3
2023-02-23T04:30:05.895Z,39.3
2023-02-23T04:35:08.632Z,39.3
2023-02-23T04:40:08.293Z,39.3
2023-02-23T04:45:08.744Z,39.2
2023-02-23T04:50:11.591Z,39.2
2023-02-23T04:55:11.990Z,39.2
2023-02-23T05:00:11.889Z,39.2
2023-02-23T05:05:12.271Z,39.3
2023-02-23T05:10:12.345Z,39.2
2023-02-23T05:15:12.674Z,39.2
2023-02-23T05:20:13.089Z,39.2
2023-02-23T05:25:13.211Z,39
2023-02-23T05:30:13.177Z,38.9
2023-02-23T05:35:13.547Z,39
2023-02-23T05:40:13.778Z,39
2023-02-23T05:45:16.889Z,39
2023-02-23T05:50:16.756Z,38.9
2023-02-23T05:55:19.836Z,38.9
2023-02-23T06:00:19.709Z,38.7
2023-02-23T06:05:19.933Z,38.5
2023-02-23T06:10:20.567Z,38.4
2023-02-23T06:15:20.965Z,38.4
2023-02-23T06:20:21.413Z,38.3
2023-02-23T06:25:21.470Z,38.4
2023-02-23T06:30:21.460Z,38.3
2023-02-23T06:35:21.888Z,38.3
2023-02-23T06:40:22.092Z,38.3
2023-02-23T06:45:22.467Z,38.3
2023-02-23T06:50:22.705Z,38.2
2023-02-23T06:55:23.152Z,38.2
2023-02-23T07:00:23.652Z,38.4
2023-02-23T07:05:23.805Z,38.3
2023-02-23T07:10:24.185Z,38.2
2023-02-23T07:15:24.625Z,38.3
2023-02-23T07:20:24.614Z,38.2
2023-02-23T07:25:24.903Z,38.3
2023-02-23T07:30:25.188Z,38.3
2023-02-23T07:35:25.304Z,38.3
2023-02-23T07:40:25.457Z,38.5
2023-02-23T07:45:25.668Z,38.4
2023-02-23T07:50:25.863Z,38.4
2023-02-23T07:55:26.073Z,38.3
2023-02-23T08:00:26.403Z,38.5
2023-02-23T08:05:26.803Z,38.3
2023-02-23T08:10:27.238Z,38.4
2023-02-23T08:15:27.708Z,38.3
2023-02-23T08:20:27.518Z,38.4
2023-02-23T08:25:27.787Z,38.4
2023-02-23T08:30:28.240Z,38.5
2023-02-23T08:35:28.480Z,38.5
2023-02-23T08:40:28.862Z,38.6
2023-02-23T08:45:31.846Z,38.6
2023-02-23T08:50:31.675Z,38.7
2023-02-23T08:55:31.898Z,38.6
2023-02-23T09:00:31.936Z,38.6
2023-02-23T09:05:33.071Z,38.7
2023-02-23T09:10:33.176Z,38.8
2023-02-23T09:15:36.145Z,38.7
2023-02-23T09:20:36.552Z,38.8
2023-02-23T09:25:36.882Z,38.9
2023-02-23T09:30:36.859Z,38.9
2023-02-23T09:35:37.095Z,38.8
2023-02-23T09:40:37.526Z,38.8
2023-02-23T09:45:37.385Z,38.8
2023-02-23T09:50:37.474Z,38.8
2023-02-23T09:55:37.698Z,38.8
2023-02-23T10:00:38.103Z,38.9
2023-02-23T10:05:37.374Z,38.9
2023-02-23T10:10:38.073Z,39.1
2023-02-23T10:15:38.442Z,39
2023-02-23T10:20:38.619Z,39.1
2023-02-23T10:25:38.844Z,39.1
2023-02-23T10:30:38.970Z,39.1
2023-02-23T10:35:39.185Z,39.3
2023-02-23T10:40:39.678Z,39.6
2023-02-23T10:45:39.718Z,39.4
2023-02-23T10:50:40.115Z,39.5
2023-02-23T10:55:40.239Z,39.7
2023-02-23T11:00:40.699Z,39.4
2023-02-23T11:05:40.618Z,39.4
2023-02-23T11:10:40.779Z,39.4
2023-02-23T11:15:50.130Z,38.8
2023-02-23T11:20:41.210Z,38.8
2023-02-23T11:25:41.490Z,38.9
2023-02-23T11:30:41.689Z,38.8
2023-02-23T11:35:41.906Z,38.8
2023-02-23T11:40:42.205Z,38.9
2023-02-23T11:45:43.810Z,38.8
2023-02-23T11:50:42.648Z,38.8
2023-02-23T11:55:42.874Z,38.8
2023-02-23T12:00:45.906Z,38.8
2023-02-23T12:05:45.657Z,38.8
2023-02-23T12:10:46.031Z,38.9
2023-02-23T12:15:49.031Z,38.8
2023-02-23T12:20:51.506Z,39.2
2023-02-23T12:25:51.137Z,39
2023-02-23T12:30:51.469Z,39.1
2023-02-23T12:35:51.491Z,39.2
2023-02-23T12:40:52.030Z,39.2
2023-02-23T12:45:52.162Z,39.3
2023-02-23T12:50:52.585Z,39.2
2023-02-23T12:55:52.674Z,39
2023-02-23T13:00:53.219Z,38.9
2023-02-23T13:05:53.412Z,39.3
2023-02-23T13:10:56.354Z,39.3
2023-02-23T13:15:55.976Z,39.2
2023-02-23T13:20:56.326Z,39.2
2023-02-23T13:25:56.367Z,39.2
2023-02-23T13:30:56.662Z,39
2023-02-23T13:35:56.739Z,39
2023-02-23T13:40:58.884Z,39.1
2023-02-23T13:45:58.827Z,39.4
2023-02-23T13:50:59.279Z,39.4
2023-02-23T13:55:59.438Z,39.2
2023-02-23T14:00:59.961Z,39.2
2023-02-23T14:06:00.132Z,39.5
2023-02-23T14:11:00.675Z,39.4
2023-02-23T14:16:03.758Z,39.1
2023-02-23T14:21:03.563Z,39.2
2023-02-23T14:26:02.561Z,39.2
2023-02-23T14:31:03.254Z,38.9
2023-02-23T14:36:03.572Z,39
2023-02-23T14:41:03.912Z,38.8
2023-02-23T14:46:06.849Z,38.4
2023-02-23T14:51:16.034Z,38.7
2023-02-23T14:56:06.645Z,38.7
2023-02-23T15:01:06.647Z,37.9
2023-02-23T15:06:07.209Z,38.2
2023-02-23T15:11:07.628Z,38.2
2023-02-23T15:16:10.652Z,38.1
2023-02-23T15:21:10.521Z,38.3
2023-02-23T15:26:23.696Z,37.6
2023-02-23T15:31:11.284Z,37.7
2023-02-23T15:36:14.512Z,38
2023-02-23T15:41:12.538Z,38
2023-02-23T15:46:14.775Z,37.7
2023-02-23T15:51:13.596Z,37.4
2023-02-23T15:56:13.792Z,37.5
2023-02-23T16:01:13.968Z,37.5
2023-02-23T16:06:14.156Z,37.6
2023-02-23T16:11:14.264Z,36.4
2023-02-23T16:16:14.639Z,36.7
2023-02-23T16:21:15.100Z,36.5
2023-02-23T16:26:18.148Z,36.7
2023-02-23T16:31:20.544Z,36.7
2023-02-23T16:36:20.544Z,37.1
2023-02-23T16:41:20.396Z,36.1
2023-02-23T16:46:20.841Z,36.3
2023-02-23T16:51:20.709Z,36.6
2023-02-23T16:56:21.392Z,36.2
2023-02-23T17:01:21.546Z,35.3
2023-02-23T17:06:24.399Z,36.5
2023-02-23T17:11:24.060Z,36.1
2023-02-23T17:16:24.583Z,36.1
2023-02-23T17:21:24.504Z,36.2
2023-02-23T17:26:24.412Z,35.9
2023-02-23T17:31:26.945Z,35.9
2023-02-23T17:36:27.636Z,36.5
2023-02-23T17:41:26.997Z,35.6
2023-02-23T17:46:27.339Z,35.6
2023-02-23T17:51:27.438Z,35.7
2023-02-23T17:56:27.144Z,35.9
2023-02-23T18:01:27.278Z,35.2
2023-02-23T18:06:27.465Z,36
2023-02-23T18:11:27.800Z,35
2023-02-23T18:16:30.369Z,35.1
2023-02-23T18:21:30.244Z,35.6
2023-02-23T18:26:30.358Z,35.4
2023-02-23T18:31:30.498Z,35.6
2023-02-23T18:36:30.547Z,35.2
2023-02-23T18:41:31.454Z,35.9
2023-02-23T18:46:31.644Z,35.2
2023-02-23T18:51:33.086Z,35.7
2023-02-23T18:56:32.961Z,35.7
2023-02-23T19:01:33.077Z,36.1
2023-02-23T19:06:33.220Z,35.8
2023-02-23T19:11:33.336Z,36.2
2023-02-23T19:16:35.955Z,36.1
2023-02-23T19:21:35.597Z,36.2
2023-02-23T19:26:35.890Z,34.8
2023-02-23T19:31:39.026Z,35.4
2023-02-23T19:36:38.547Z,35.4
2023-02-23T19:41:40.974Z,35.7
2023-02-23T19:46:40.692Z,35.7
2023-02-23T19:51:43.775Z,35.6
2023-02-23T19:56:43.451Z,35.2
2023-02-23T20:01:43.264Z,35.8
2023-02-23T20:06:43.518Z,34.8
2023-02-23T20:11:43.628Z,36.1
2023-02-23T20:16:43.851Z,35.3
2023-02-23T20:21:44.039Z,35.8
2023-02-23T20:26:45.181Z,35.8
2023-02-23T20:31:45.341Z,36.4
2023-02-23T20:36:45.511Z,35.5
2023-02-23T20:41:48.642Z,35.7
2023-02-23T20:46:48.451Z,36.7
2023-02-23T20:51:48.723Z,36.1
2023-02-23T20:56:49.042Z,36.3
2023-02-23T21:01:52.057Z,36.2
2023-02-23T21:06:52.537Z,36.9
2023-02-23T21:11:52.618Z,36.8
2023-02-23T21:16:55.574Z,36.8
2023-02-23T21:21:55.505Z,36.5
2023-02-23T21:26:55.719Z,36.9
2023-02-23T21:31:56.123Z,37.1
2023-02-23T21:36:56.250Z,37.2
2023-02-23T21:41:56.445Z,37.3
2023-02-23T21:46:56.738Z,37
2023-02-23T21:51:56.778Z,37.5
2023-02-23T21:56:56.832Z,37.2
2023-02-23T22:01:59.940Z,37.3
2023-02-23T22:06:59.513Z,37.3
2023-02-23T22:11:59.761Z,37.4
2023-02-23T22:16:59.512Z,37.3
2023-02-23T22:21:59.762Z,37.2
2023-02-23T22:27:02.660Z,37.8
2023-02-23T22:32:02.555Z,37.7
2023-02-23T22:37:02.548Z,37.6
2023-02-23T22:42:05.461Z,37.4
2023-02-23T22:47:05.086Z,37.6
2023-02-23T22:52:05.227Z,37.4
2023-02-23T22:57:05.362Z,37.8
2023-02-23T23:02:05.642Z,37.8
2023-02-23T23:07:05.705Z,37.9
2023-02-23T23:12:05.763Z,37.9
2023-02-23T23:17:05.877Z,38.1
2023-02-23T23:22:06.173Z,38.2
2023-02-23T23:27:06.323Z,38.2
2023-02-23T23:32:09.120Z,38.3
2023-02-23T23:37:08.484Z,38.2
2023-02-23T23:42:08.575Z,38.3
2023-02-23T23:47:08.674Z,38.1
2023-02-23T23:52:09.084Z,38
2023-02-23T23:57:09.495Z,37.9
